KMBL/MBL METAR and TAF weather

Enter ICAO airport designator
Station Type Date Time Source
KMBL METAR 2020/07/08 21:56 UTC NOAA

KMBL 082156Z AUTO 15008KT 10SM CLR 29/19 A2982 RMK AO2 PRESFR SLP093 T02940194


Station Type Date Time Source
KMBL Decoded METAR 2020/07/08 21:56 UTC NOAA

Manistee, Manistee County-Blacker Airport, MI, United States (KMBL) 44-16N 086-15W
Jul 08, 2020 - 05:56 PM EDT / 2020.07.08 2156 UTC
Wind: from the SSE (150 degrees) at 9 MPH (8 KT):0
Visibility: 10 mile(s):0
Sky conditions: clear
Temperature: 84.9 F (29.4 C)
Dew Point: 66.9 F (19.4 C)
Relative Humidity: 54%
Pressure (altimeter): 29.82 in. Hg (1009 hPa)
Pressure tendency: falling rapidly
ob: KMBL 082156Z AUTO 15008KT 10SM CLR 29/19 A2982 RMK AO2 PRESFR SLP093 T02940194
cycle: 22

Station Type Date Time Source
KMBL TAF 2020/07/08 18:21 UTC NOAA

TAF KMBL 081720Z 0818/0918 27010KT P6SM FEW050 SCT250
FM090100 20005KT P6SM FEW250
FM090900 11003KT P6SM SCT120
FM091500 20007KT P6SM FEW050 SCT120

Example: see airport list